sensor_id;sensor_type;location;lat;lon;timestamp;temperature;humidity
32698;DHT22;19087;51.062;3.754;2023-10-13T00:00:34;19.20;99.90
32698;DHT22;19087;51.062;3.754;2023-10-13T00:03:05;19.20;99.90
32698;DHT22;19087;51.062;3.754;2023-10-13T00:05:33;19.20;99.90
32698;DHT22;19087;51.062;3.754;2023-10-13T00:08:03;19.30;99.90
32698;DHT22;19087;51.062;3.754;2023-10-13T00:10:30;19.30;99.90
32698;DHT22;19087;51.062;3.754;2023-10-13T00:12:59;19.30;99.90
32698;DHT22;19087;51.062;3.754;2023-10-13T00:18:13;19.20;99.90
32698;DHT22;19087;51.062;3.754;2023-10-13T00:20:41;19.20;99.90
32698;DHT22;19087;51.062;3.754;2023-10-13T00:23:14;19.20;99.90
32698;DHT22;19087;51.062;3.754;2023-10-13T00:25:42;19.20;99.90
32698;DHT22;19087;51.062;3.754;2023-10-13T00:28:16;19.20;99.90
32698;DHT22;19087;51.062;3.754;2023-10-13T00:30:54;19.30;99.90
32698;DHT22;19087;51.062;3.754;2023-10-13T00:33:26;19.30;99.90
32698;DHT22;19087;51.062;3.754;2023-10-13T00:35:52;19.30;99.90
32698;DHT22;19087;51.062;3.754;2023-10-13T00:38:20;19.30;99.90
32698;DHT22;19087;51.062;3.754;2023-10-13T00:40:48;19.30;99.90
32698;DHT22;19087;51.062;3.754;2023-10-13T00:43:18;19.30;99.90
32698;DHT22;19087;51.062;3.754;2023-10-13T00:45:46;19.30;99.90
32698;DHT22;19087;51.062;3.754;2023-10-13T00:48:29;19.30;99.90
32698;DHT22;19087;51.062;3.754;2023-10-13T00:51:02;19.30;99.90
32698;DHT22;19087;51.062;3.754;2023-10-13T00:53:39;19.40;99.90
32698;DHT22;19087;51.062;3.754;2023-10-13T00:56:10;19.40;99.90
32698;DHT22;19087;51.062;3.754;2023-10-13T00:58:48;19.30;99.90
32698;DHT22;19087;51.062;3.754;2023-10-13T01:01:19;19.30;99.90
32698;DHT22;19087;51.062;3.754;2023-10-13T01:03:53;19.30;99.90
32698;DHT22;19087;51.062;3.754;2023-10-13T01:06:27;19.30;99.90
32698;DHT22;19087;51.062;3.754;2023-10-13T01:09:06;19.20;99.90
32698;DHT22;19087;51.062;3.754;2023-10-13T01:11:45;19.20;99.90
32698;DHT22;19087;51.062;3.754;2023-10-13T01:14:20;19.20;99.90
32698;DHT22;19087;51.062;3.754;2023-10-13T01:16:48;19.30;99.90
32698;DHT22;19087;51.062;3.754;2023-10-13T01:19:20;19.20;99.90
32698;DHT22;19087;51.062;3.754;2023-10-13T01:21:53;19.30;99.90
32698;DHT22;19087;51.062;3.754;2023-10-13T01:24:29;19.30;99.90
32698;DHT22;19087;51.062;3.754;2023-10-13T01:26:57;19.30;99.90
32698;DHT22;19087;51.062;3.754;2023-10-13T01:29:24;19.30;99.90
32698;DHT22;19087;51.062;3.754;2023-10-13T01:31:54;19.30;99.90
32698;DHT22;19087;51.062;3.754;2023-10-13T01:34:20;19.30;99.90
32698;DHT22;19087;51.062;3.754;2023-10-13T01:36:50;19.30;99.90
32698;DHT22;19087;51.062;3.754;2023-10-13T01:39:17;19.30;99.90
32698;DHT22;19087;51.062;3.754;2023-10-13T01:41:47;19.30;99.90
32698;DHT22;19087;51.062;3.754;2023-10-13T01:44:25;19.30;99.90
32698;DHT22;19087;51.062;3.754;2023-10-13T01:46:57;19.30;99.90
32698;DHT22;19087;51.062;3.754;2023-10-13T01:49:35;19.10;99.90
32698;DHT22;19087;51.062;3.754;2023-10-13T01:52:09;19.10;99.90
32698;DHT22;19087;51.062;3.754;2023-10-13T01:54:45;19.10;99.90
32698;DHT22;19087;51.062;3.754;2023-10-13T01:57:12;19.10;99.90
32698;DHT22;19087;51.062;3.754;2023-10-13T01:59:44;19.20;99.90
32698;DHT22;19087;51.062;3.754;2023-10-13T02:02:11;19.20;99.90
32698;DHT22;19087;51.062;3.754;2023-10-13T02:04:40;19.20;99.90
32698;DHT22;19087;51.062;3.754;2023-10-13T02:07:21;19.30;99.90
32698;DHT22;19087;51.062;3.754;2023-10-13T02:09:53;19.40;99.90
32698;DHT22;19087;51.062;3.754;2023-10-13T02:12:21;19.40;99.90
32698;DHT22;19087;51.062;3.754;2023-10-13T02:14:59;19.40;99.90
32698;DHT22;19087;51.062;3.754;2023-10-13T02:17:26;19.30;99.90
32698;DHT22;19087;51.062;3.754;2023-10-13T02:19:52;19.20;99.90
32698;DHT22;19087;51.062;3.754;2023-10-13T02:22:19;19.30;99.90
32698;DHT22;19087;51.062;3.754;2023-10-13T02:24:54;19.30;99.90
32698;DHT22;19087;51.062;3.754;2023-10-13T02:27:27;19.10;99.90
32698;DHT22;19087;51.062;3.754;2023-10-13T02:29:53;19.10;99.90
32698;DHT22;19087;51.062;3.754;2023-10-13T02:32:25;19.20;99.90
32698;DHT22;19087;51.062;3.754;2023-10-13T02:34:55;19.20;99.90
32698;DHT22;19087;51.062;3.754;2023-10-13T02:37:29;19.20;99.90
32698;DHT22;19087;51.062;3.754;2023-10-13T02:39:56;19.10;99.90
32698;DHT22;19087;51.062;3.754;2023-10-13T02:42:24;19.20;99.90
32698;DHT22;19087;51.062;3.754;2023-10-13T02:44:50;19.20;99.90
32698;DHT22;19087;51.062;3.754;2023-10-13T02:47:19;19.30;99.90
32698;DHT22;19087;51.062;3.754;2023-10-13T02:49:50;19.40;99.90
32698;DHT22;19087;51.062;3.754;2023-10-13T02:52:15;19.30;99.90
32698;DHT22;19087;51.062;3.754;2023-10-13T02:54:42;19.40;99.90
32698;DHT22;19087;51.062;3.754;2023-10-13T02:57:17;19.40;99.90
32698;DHT22;19087;51.062;3.754;2023-10-13T02:59:44;19.50;99.90
32698;DHT22;19087;51.062;3.754;2023-10-13T03:02:16;19.40;99.90
32698;DHT22;19087;51.062;3.754;2023-10-13T03:04:56;19.40;99.90
32698;DHT22;19087;51.062;3.754;2023-10-13T03:07:28;19.40;99.90
32698;DHT22;19087;51.062;3.754;2023-10-13T03:09:58;19.50;99.90
32698;DHT22;19087;51.062;3.754;2023-10-13T03:12:26;19.50;99.90
32698;DHT22;19087;51.062;3.754;2023-10-13T03:14:58;19.50;99.90
32698;DHT22;19087;51.062;3.754;2023-10-13T03:17:41;19.40;99.90
32698;DHT22;19087;51.062;3.754;2023-10-13T03:20:18;19.40;99.90
32698;DHT22;19087;51.062;3.754;2023-10-13T03:23:04;19.40;99.90
32698;DHT22;19087;51.062;3.754;2023-10-13T03:25:35;19.50;99.90
32698;DHT22;19087;51.062;3.754;2023-10-13T03:28:09;19.50;99.90
32698;DHT22;19087;51.062;3.754;2023-10-13T03:30:40;19.50;99.90
32698;DHT22;19087;51.062;3.754;2023-10-13T03:33:10;19.40;99.90
32698;DHT22;19087;51.062;3.754;2023-10-13T03:35:41;19.50;99.90
32698;DHT22;19087;51.062;3.754;2023-10-13T03:38:18;19.60;99.90
32698;DHT22;19087;51.062;3.754;2023-10-13T03:40:47;19.60;99.90
32698;DHT22;19087;51.062;3.754;2023-10-13T03:43:23;19.50;99.90
32698;DHT22;19087;51.062;3.754;2023-10-13T03:45:51;19.50;99.90
32698;DHT22;19087;51.062;3.754;2023-10-13T03:48:29;19.60;99.90
32698;DHT22;19087;51.062;3.754;2023-10-13T03:51:02;19.60;99.90
32698;DHT22;19087;51.062;3.754;2023-10-13T03:53:39;19.60;99.90
32698;DHT22;19087;51.062;3.754;2023-10-13T03:56:28;19.70;99.90
32698;DHT22;19087;51.062;3.754;2023-10-13T03:58:56;19.70;99.90
32698;DHT22;19087;51.062;3.754;2023-10-13T04:01:33;19.50;99.90
32698;DHT22;19087;51.062;3.754;2023-10-13T04:04:13;19.60;99.90
32698;DHT22;19087;51.062;3.754;2023-10-13T04:07:02;19.50;99.90
32698;DHT22;19087;51.062;3.754;2023-10-13T04:09:30;19.60;99.90
32698;DHT22;19087;51.062;3.754;2023-10-13T04:12:01;19.60;99.90
32698;DHT22;19087;51.062;3.754;2023-10-13T04:14:31;19.60;99.90
32698;DHT22;19087;51.062;3.754;2023-10-13T04:17:16;19.40;99.90
32698;DHT22;19087;51.062;3.754;2023-10-13T04:19:50;19.40;99.90
32698;DHT22;19087;51.062;3.754;2023-10-13T04:22:37;19.50;99.90
32698;DHT22;19087;51.062;3.754;2023-10-13T04:25:32;19.60;99.90
32698;DHT22;19087;51.062;3.754;2023-10-13T04:28:13;19.60;99.90
32698;DHT22;19087;51.062;3.754;2023-10-13T04:30:46;19.70;99.90
32698;DHT22;19087;51.062;3.754;2023-10-13T04:33:21;19.70;99.90
32698;DHT22;19087;51.062;3.754;2023-10-13T04:36:11;19.60;99.90
32698;DHT22;19087;51.062;3.754;2023-10-13T04:38:55;19.50;99.90
32698;DHT22;19087;51.062;3.754;2023-10-13T04:41:39;19.40;99.90
32698;DHT22;19087;51.062;3.754;2023-10-13T04:44:12;19.40;99.90
32698;DHT22;19087;51.062;3.754;2023-10-13T04:46:58;19.50;99.90
32698;DHT22;19087;51.062;3.754;2023-10-13T04:49:29;19.40;99.90
32698;DHT22;19087;51.062;3.754;2023-10-13T04:52:16;19.50;99.90
32698;DHT22;19087;51.062;3.754;2023-10-13T04:55:04;19.60;99.90
32698;DHT22;19087;51.062;3.754;2023-10-13T04:58:02;19.50;99.90
32698;DHT22;19087;51.062;3.754;2023-10-13T05:00:42;19.50;99.90
32698;DHT22;19087;51.062;3.754;2023-10-13T05:03:26;19.50;99.90
32698;DHT22;19087;51.062;3.754;2023-10-13T05:06:27;19.40;99.90
32698;DHT22;19087;51.062;3.754;2023-10-13T05:09:13;19.40;99.90
32698;DHT22;19087;51.062;3.754;2023-10-13T05:11:57;19.40;99.90
32698;DHT22;19087;51.062;3.754;2023-10-13T05:14:42;19.40;99.90
32698;DHT22;19087;51.062;3.754;2023-10-13T05:17:27;19.40;99.90
32698;DHT22;19087;51.062;3.754;2023-10-13T05:20:12;19.30;99.90
32698;DHT22;19087;51.062;3.754;2023-10-13T05:22:59;19.20;99.90
32698;DHT22;19087;51.062;3.754;2023-10-13T05:25:45;19.20;99.90
32698;DHT22;19087;51.062;3.754;2023-10-13T05:28:29;19.20;99.90
32698;DHT22;19087;51.062;3.754;2023-10-13T05:31:14;19.10;99.90
32698;DHT22;19087;51.062;3.754;2023-10-13T05:34:01;19.10;99.90
32698;DHT22;19087;51.062;3.754;2023-10-13T05:36:48;19.00;99.90
32698;DHT22;19087;51.062;3.754;2023-10-13T05:39:37;19.00;99.90
32698;DHT22;19087;51.062;3.754;2023-10-13T05:42:46;19.00;99.90
32698;DHT22;19087;51.062;3.754;2023-10-13T05:45:37;19.10;99.90
32698;DHT22;19087;51.062;3.754;2023-10-13T05:48:32;19.20;99.90
32698;DHT22;19087;51.062;3.754;2023-10-13T05:51:19;19.20;99.90
32698;DHT22;19087;51.062;3.754;2023-10-13T05:54:06;19.10;99.90
32698;DHT22;19087;51.062;3.754;2023-10-13T05:56:45;19.10;99.90
32698;DHT22;19087;51.062;3.754;2023-10-13T05:59:34;19.10;99.90
32698;DHT22;19087;51.062;3.754;2023-10-13T06:02:21;19.10;99.90
32698;DHT22;19087;51.062;3.754;2023-10-13T06:05:12;19.10;99.90
32698;DHT22;19087;51.062;3.754;2023-10-13T06:07:58;19.10;99.90
32698;DHT22;19087;51.062;3.754;2023-10-13T06:10:43;19.20;99.90
32698;DHT22;19087;51.062;3.754;2023-10-13T06:13:28;19.10;99.90
32698;DHT22;19087;51.062;3.754;2023-10-13T06:16:15;19.10;99.90
32698;DHT22;19087;51.062;3.754;2023-10-13T06:18:59;19.00;99.90
32698;DHT22;19087;51.062;3.754;2023-10-13T06:21:46;19.10;99.90
32698;DHT22;19087;51.062;3.754;2023-10-13T06:24:34;19.10;99.90
32698;DHT22;19087;51.062;3.754;2023-10-13T06:27:18;19.00;99.90
32698;DHT22;19087;51.062;3.754;2023-10-13T06:30:03;19.00;99.90
32698;DHT22;19087;51.062;3.754;2023-10-13T06:32:32;19.10;99.90
32698;DHT22;19087;51.062;3.754;2023-10-13T06:34:59;19.10;99.90
32698;DHT22;19087;51.062;3.754;2023-10-13T06:37:31;19.20;99.90
32698;DHT22;19087;51.062;3.754;2023-10-13T06:40:01;19.10;99.90
32698;DHT22;19087;51.062;3.754;2023-10-13T06:42:45;19.10;99.90
32698;DHT22;19087;51.062;3.754;2023-10-13T06:45:11;19.00;99.90
32698;DHT22;19087;51.062;3.754;2023-10-13T06:47:38;19.00;99.90
32698;DHT22;19087;51.062;3.754;2023-10-13T06:50:15;19.00;99.90
32698;DHT22;19087;51.062;3.754;2023-10-13T06:52:47;19.00;99.90
32698;DHT22;19087;51.062;3.754;2023-10-13T06:55:16;19.00;99.90
32698;DHT22;19087;51.062;3.754;2023-10-13T06:57:56;19.10;99.90
32698;DHT22;19087;51.062;3.754;2023-10-13T07:00:28;19.10;99.90
32698;DHT22;19087;51.062;3.754;2023-10-13T07:03:05;19.20;99.90
32698;DHT22;19087;51.062;3.754;2023-10-13T07:05:44;19.30;99.90
32698;DHT22;19087;51.062;3.754;2023-10-13T07:08:15;19.40;99.90
32698;DHT22;19087;51.062;3.754;2023-10-13T07:10:52;19.40;99.90
32698;DHT22;19087;51.062;3.754;2023-10-13T07:13:29;19.60;99.90
32698;DHT22;19087;51.062;3.754;2023-10-13T07:15:55;19.60;99.90
32698;DHT22;19087;51.062;3.754;2023-10-13T07:18:31;19.50;99.90
32698;DHT22;19087;51.062;3.754;2023-10-13T07:21:03;19.50;99.90
32698;DHT22;19087;51.062;3.754;2023-10-13T07:23:38;19.60;99.90
32698;DHT22;19087;51.062;3.754;2023-10-13T07:26:06;19.70;99.90
32698;DHT22;19087;51.062;3.754;2023-10-13T07:28:34;19.70;99.90
32698;DHT22;19087;51.062;3.754;2023-10-13T07:31:14;19.70;99.90
32698;DHT22;19087;51.062;3.754;2023-10-13T07:33:46;19.70;99.90
32698;DHT22;19087;51.062;3.754;2023-10-13T07:36:12;19.70;99.90
32698;DHT22;19087;51.062;3.754;2023-10-13T07:38:45;19.90;99.90
32698;DHT22;19087;51.062;3.754;2023-10-13T07:41:15;19.90;99.90
32698;DHT22;19087;51.062;3.754;2023-10-13T07:43:42;19.90;99.90
32698;DHT22;19087;51.062;3.754;2023-10-13T07:46:11;19.90;99.90
32698;DHT22;19087;51.062;3.754;2023-10-13T07:48:39;20.00;99.90
32698;DHT22;19087;51.062;3.754;2023-10-13T07:51:12;20.00;99.90
32698;DHT22;19087;51.062;3.754;2023-10-13T07:53:45;20.20;99.90
32698;DHT22;19087;51.062;3.754;2023-10-13T07:56:14;20.30;99.90
32698;DHT22;19087;51.062;3.754;2023-10-13T07:58:44;20.30;99.90
32698;DHT22;19087;51.062;3.754;2023-10-13T08:01:21;20.30;99.90
32698;DHT22;19087;51.062;3.754;2023-10-13T08:03:47;20.50;99.90
32698;DHT22;19087;51.062;3.754;2023-10-13T08:06:24;20.50;99.90
32698;DHT22;19087;51.062;3.754;2023-10-13T08:08:54;20.60;99.90
32698;DHT22;19087;51.062;3.754;2023-10-13T08:11:22;20.60;99.90
32698;DHT22;19087;51.062;3.754;2023-10-13T08:13:58;20.70;99.90
32698;DHT22;19087;51.062;3.754;2023-10-13T08:16:31;20.80;99.90
32698;DHT22;19087;51.062;3.754;2023-10-13T08:19:16;20.90;99.90
32698;DHT22;19087;51.062;3.754;2023-10-13T08:21:46;20.80;99.90
32698;DHT22;19087;51.062;3.754;2023-10-13T08:24:18;20.90;99.90
32698;DHT22;19087;51.062;3.754;2023-10-13T08:27:05;21.00;99.90
32698;DHT22;19087;51.062;3.754;2023-10-13T08:29:41;21.00;99.90
32698;DHT22;19087;51.062;3.754;2023-10-13T08:32:20;21.10;99.90
32698;DHT22;19087;51.062;3.754;2023-10-13T08:35:02;21.00;99.90
32698;DHT22;19087;51.062;3.754;2023-10-13T08:37:32;21.00;99.90
32698;DHT22;19087;51.062;3.754;2023-10-13T08:40:03;20.90;99.90
32698;DHT22;19087;51.062;3.754;2023-10-13T08:42:32;20.80;99.90
32698;DHT22;19087;51.062;3.754;2023-10-13T08:45:14;20.80;99.90
32698;DHT22;19087;51.062;3.754;2023-10-13T08:47:50;20.80;99.90
32698;DHT22;19087;51.062;3.754;2023-10-13T08:50:48;20.80;99.90
32698;DHT22;19087;51.062;3.754;2023-10-13T08:53:25;20.80;99.90
32698;DHT22;19087;51.062;3.754;2023-10-13T08:56:02;21.00;99.90
32698;DHT22;19087;51.062;3.754;2023-10-13T08:58:37;20.90;99.90
32698;DHT22;19087;51.062;3.754;2023-10-13T09:04:19;21.20;99.90
32698;DHT22;19087;51.062;3.754;2023-10-13T09:07:00;21.10;99.90
32698;DHT22;19087;51.062;3.754;2023-10-13T09:09:49;21.10;99.90
32698;DHT22;19087;51.062;3.754;2023-10-13T09:12:30;21.20;99.90
32698;DHT22;19087;51.062;3.754;2023-10-13T09:15:03;21.20;99.90
32698;DHT22;19087;51.062;3.754;2023-10-13T09:17:49;21.20;99.90
32698;DHT22;19087;51.062;3.754;2023-10-13T09:20:38;21.10;99.90
32698;DHT22;19087;51.062;3.754;2023-10-13T09:25:39;20.90;99.90
32698;DHT22;19087;51.062;3.754;2023-10-13T09:28:19;20.90;99.90
32698;DHT22;19087;51.062;3.754;2023-10-13T09:30:50;20.90;99.90
32698;DHT22;19087;51.062;3.754;2023-10-13T09:33:28;20.70;99.90
32698;DHT22;19087;51.062;3.754;2023-10-13T09:36:16;20.60;99.90
32698;DHT22;19087;51.062;3.754;2023-10-13T09:38:45;20.80;99.90
32698;DHT22;19087;51.062;3.754;2023-10-13T09:41:31;20.80;99.90
32698;DHT22;19087;51.062;3.754;2023-10-13T09:43:58;20.80;99.90
32698;DHT22;19087;51.062;3.754;2023-10-13T09:46:26;20.80;99.90
32698;DHT22;19087;51.062;3.754;2023-10-13T09:49:12;20.90;99.90
32698;DHT22;19087;51.062;3.754;2023-10-13T09:51:48;20.90;99.90
32698;DHT22;19087;51.062;3.754;2023-10-13T09:54:24;20.90;99.90
32698;DHT22;19087;51.062;3.754;2023-10-13T09:56:57;21.00;99.90
32698;DHT22;19087;51.062;3.754;2023-10-13T09:59:39;20.90;99.90
32698;DHT22;19087;51.062;3.754;2023-10-13T10:02:13;20.90;99.90
32698;DHT22;19087;51.062;3.754;2023-10-13T10:04:56;20.90;99.90
32698;DHT22;19087;51.062;3.754;2023-10-13T10:07:39;20.90;99.90
32698;DHT22;19087;51.062;3.754;2023-10-13T10:10:09;20.80;99.90
32698;DHT22;19087;51.062;3.754;2023-10-13T10:12:52;20.80;99.90
32698;DHT22;19087;51.062;3.754;2023-10-13T10:15:32;20.90;99.90
32698;DHT22;19087;51.062;3.754;2023-10-13T10:18:00;21.00;99.90
32698;DHT22;19087;51.062;3.754;2023-10-13T10:20:36;20.90;99.90
32698;DHT22;19087;51.062;3.754;2023-10-13T10:23:22;20.90;99.90
32698;DHT22;19087;51.062;3.754;2023-10-13T10:25:49;21.00;99.90
32698;DHT22;19087;51.062;3.754;2023-10-13T10:28:17;21.10;99.90
32698;DHT22;19087;51.062;3.754;2023-10-13T10:30:45;21.20;99.90
32698;DHT22;19087;51.062;3.754;2023-10-13T10:33:11;21.30;99.90
32698;DHT22;19087;51.062;3.754;2023-10-13T10:35:58;21.30;99.90
32698;DHT22;19087;51.062;3.754;2023-10-13T10:38:24;21.40;99.90
32698;DHT22;19087;51.062;3.754;2023-10-13T10:41:16;21.50;99.90
32698;DHT22;19087;51.062;3.754;2023-10-13T10:43:50;21.50;99.90
32698;DHT22;19087;51.062;3.754;2023-10-13T10:46:18;21.60;99.90
32698;DHT22;19087;51.062;3.754;2023-10-13T10:48:47;21.80;99.90
32698;DHT22;19087;51.062;3.754;2023-10-13T10:51:15;21.90;99.90
32698;DHT22;19087;51.062;3.754;2023-10-13T10:53:41;22.10;99.90
32698;DHT22;19087;51.062;3.754;2023-10-13T10:56:12;22.10;99.90
32698;DHT22;19087;51.062;3.754;2023-10-13T10:58:55;22.10;99.90
32698;DHT22;19087;51.062;3.754;2023-10-13T11:01:22;22.20;99.90
32698;DHT22;19087;51.062;3.754;2023-10-13T11:06:24;22.10;99.90
32698;DHT22;19087;51.062;3.754;2023-10-13T11:09:12;22.20;99.90
32698;DHT22;19087;51.062;3.754;2023-10-13T11:12:10;22.30;99.90
32698;DHT22;19087;51.062;3.754;2023-10-13T11:15:08;22.30;99.90
32698;DHT22;19087;51.062;3.754;2023-10-13T11:17:49;22.40;99.90
32698;DHT22;19087;51.062;3.754;2023-10-13T11:20:20;22.50;99.90
32698;DHT22;19087;51.062;3.754;2023-10-13T11:22:59;22.50;99.90
32698;DHT22;19087;51.062;3.754;2023-10-13T11:25:31;22.50;99.90
32698;DHT22;19087;51.062;3.754;2023-10-13T11:28:13;22.50;99.90
32698;DHT22;19087;51.062;3.754;2023-10-13T11:30:49;22.50;99.90
32698;DHT22;19087;51.062;3.754;2023-10-13T11:33:18;22.50;99.90
32698;DHT22;19087;51.062;3.754;2023-10-13T11:35:52;22.80;99.90
32698;DHT22;19087;51.062;3.754;2023-10-13T11:38:23;22.80;99.90
32698;DHT22;19087;51.062;3.754;2023-10-13T11:43:40;23.00;99.90
32698;DHT22;19087;51.062;3.754;2023-10-13T11:46:10;23.00;99.90
32698;DHT22;19087;51.062;3.754;2023-10-13T11:48:40;22.90;99.90
32698;DHT22;19087;51.062;3.754;2023-10-13T11:51:16;22.80;99.90
32698;DHT22;19087;51.062;3.754;2023-10-13T11:53:58;22.80;99.90
32698;DHT22;19087;51.062;3.754;2023-10-13T11:56:24;22.90;99.90
32698;DHT22;19087;51.062;3.754;2023-10-13T11:58:50;22.80;99.90
32698;DHT22;19087;51.062;3.754;2023-10-13T12:01:17;22.90;99.90
32698;DHT22;19087;51.062;3.754;2023-10-13T12:03:48;22.80;99.90
32698;DHT22;19087;51.062;3.754;2023-10-13T12:06:34;22.90;99.90
32698;DHT22;19087;51.062;3.754;2023-10-13T12:09:10;23.00;99.90
32698;DHT22;19087;51.062;3.754;2023-10-13T12:11:48;23.00;99.90
32698;DHT22;19087;51.062;3.754;2023-10-13T12:14:17;23.00;99.90
32698;DHT22;19087;51.062;3.754;2023-10-13T12:16:47;23.20;99.90
32698;DHT22;19087;51.062;3.754;2023-10-13T12:19:21;23.40;99.90
32698;DHT22;19087;51.062;3.754;2023-10-13T12:21:50;23.40;99.90
32698;DHT22;19087;51.062;3.754;2023-10-13T12:24:20;23.40;99.90
32698;DHT22;19087;51.062;3.754;2023-10-13T12:27:06;23.60;99.90
32698;DHT22;19087;51.062;3.754;2023-10-13T12:29:53;23.50;99.90
32698;DHT22;19087;51.062;3.754;2023-10-13T12:32:22;23.70;99.90
32698;DHT22;19087;51.062;3.754;2023-10-13T12:34:51;23.80;99.90
32698;DHT22;19087;51.062;3.754;2023-10-13T12:37:46;23.90;99.90
32698;DHT22;19087;51.062;3.754;2023-10-13T12:40:14;24.00;99.90
32698;DHT22;19087;51.062;3.754;2023-10-13T12:42:59;24.00;99.90
32698;DHT22;19087;51.062;3.754;2023-10-13T12:45:45;24.10;99.90
32698;DHT22;19087;51.062;3.754;2023-10-13T12:48:32;23.90;99.90
32698;DHT22;19087;51.062;3.754;2023-10-13T12:51:16;24.00;99.90
32698;DHT22;19087;51.062;3.754;2023-10-13T12:53:55;24.00;99.90
32698;DHT22;19087;51.062;3.754;2023-10-13T12:56:30;24.00;99.90
32698;DHT22;19087;51.062;3.754;2023-10-13T12:58:56;24.00;99.90
32698;DHT22;19087;51.062;3.754;2023-10-13T13:01:23;23.90;99.90
32698;DHT22;19087;51.062;3.754;2023-10-13T13:03:52;23.70;99.90
32698;DHT22;19087;51.062;3.754;2023-10-13T13:06:23;23.70;99.90
32698;DHT22;19087;51.062;3.754;2023-10-13T13:08:59;23.40;99.90
32698;DHT22;19087;51.062;3.754;2023-10-13T13:11:26;23.40;99.90
32698;DHT22;19087;51.062;3.754;2023-10-13T13:13:54;23.40;99.90
32698;DHT22;19087;51.062;3.754;2023-10-13T13:16:19;23.30;99.90
32698;DHT22;19087;51.062;3.754;2023-10-13T13:18:50;23.20;99.90
32698;DHT22;19087;51.062;3.754;2023-10-13T13:21:16;23.20;99.90
32698;DHT22;19087;51.062;3.754;2023-10-13T13:23:48;23.20;99.90
32698;DHT22;19087;51.062;3.754;2023-10-13T13:26:14;23.20;99.90
32698;DHT22;19087;51.062;3.754;2023-10-13T13:28:45;23.30;99.90
32698;DHT22;19087;51.062;3.754;2023-10-13T13:31:18;23.40;99.90
32698;DHT22;19087;51.062;3.754;2023-10-13T13:33:44;23.40;99.90
32698;DHT22;19087;51.062;3.754;2023-10-13T13:36:10;23.50;99.90
32698;DHT22;19087;51.062;3.754;2023-10-13T13:38:41;23.50;99.90
32698;DHT22;19087;51.062;3.754;2023-10-13T13:41:14;23.50;99.90
32698;DHT22;19087;51.062;3.754;2023-10-13T13:43:43;23.50;99.90
32698;DHT22;19087;51.062;3.754;2023-10-13T13:46:25;23.50;99.90
32698;DHT22;19087;51.062;3.754;2023-10-13T13:48:55;23.40;99.90
32698;DHT22;19087;51.062;3.754;2023-10-13T13:51:25;23.40;99.90
32698;DHT22;19087;51.062;3.754;2023-10-13T13:53:55;23.30;99.90
32698;DHT22;19087;51.062;3.754;2023-10-13T13:56:21;23.30;99.90
32698;DHT22;19087;51.062;3.754;2023-10-13T13:58:51;23.30;99.90
32698;DHT22;19087;51.062;3.754;2023-10-13T14:01:18;23.20;99.90
32698;DHT22;19087;51.062;3.754;2023-10-13T14:03:46;23.30;99.90
32698;DHT22;19087;51.062;3.754;2023-10-13T14:06:13;23.20;99.90
32698;DHT22;19087;51.062;3.754;2023-10-13T14:08:45;23.30;99.90
32698;DHT22;19087;51.062;3.754;2023-10-13T14:11:15;23.40;99.90
32698;DHT22;19087;51.062;3.754;2023-10-13T14:13:59;23.20;99.90
32698;DHT22;19087;51.062;3.754;2023-10-13T14:16:30;23.00;99.90
32698;DHT22;19087;51.062;3.754;2023-10-13T14:18:59;23.00;99.90
32698;DHT22;19087;51.062;3.754;2023-10-13T14:21:27;23.00;99.90
32698;DHT22;19087;51.062;3.754;2023-10-13T14:23:53;23.00;99.90
32698;DHT22;19087;51.062;3.754;2023-10-13T14:26:20;22.90;99.90
32698;DHT22;19087;51.062;3.754;2023-10-13T14:28:47;22.80;99.90
32698;DHT22;19087;51.062;3.754;2023-10-13T14:31:27;22.80;99.90
32698;DHT22;19087;51.062;3.754;2023-10-13T14:33:52;22.90;99.90
32698;DHT22;19087;51.062;3.754;2023-10-13T14:36:19;22.80;99.90
32698;DHT22;19087;51.062;3.754;2023-10-13T14:38:48;22.90;99.90
32698;DHT22;19087;51.062;3.754;2023-10-13T14:41:18;23.00;99.90
32698;DHT22;19087;51.062;3.754;2023-10-13T14:43:45;23.00;99.90
32698;DHT22;19087;51.062;3.754;2023-10-13T14:46:20;23.00;99.90
32698;DHT22;19087;51.062;3.754;2023-10-13T14:48:52;22.90;99.90
32698;DHT22;19087;51.062;3.754;2023-10-13T14:51:18;23.00;99.90
32698;DHT22;19087;51.062;3.754;2023-10-13T14:53:48;22.90;99.90
32698;DHT22;19087;51.062;3.754;2023-10-13T14:56:22;22.80;99.90
32698;DHT22;19087;51.062;3.754;2023-10-13T14:58:52;22.70;99.90
32698;DHT22;19087;51.062;3.754;2023-10-13T15:01:22;22.80;99.90
32698;DHT22;19087;51.062;3.754;2023-10-13T15:03:51;22.70;99.90
32698;DHT22;19087;51.062;3.754;2023-10-13T15:06:27;22.70;99.90
32698;DHT22;19087;51.062;3.754;2023-10-13T15:08:59;22.70;99.90
32698;DHT22;19087;51.062;3.754;2023-10-13T15:11:27;22.70;99.90
32698;DHT22;19087;51.062;3.754;2023-10-13T15:13:54;22.80;99.90
32698;DHT22;19087;51.062;3.754;2023-10-13T15:16:23;22.80;99.90
32698;DHT22;19087;51.062;3.754;2023-10-13T15:18:50;22.80;99.90
32698;DHT22;19087;51.062;3.754;2023-10-13T15:21:26;22.80;99.90
32698;DHT22;19087;51.062;3.754;2023-10-13T15:23:56;22.90;99.90
32698;DHT22;19087;51.062;3.754;2023-10-13T15:26:40;22.80;99.90
32698;DHT22;19087;51.062;3.754;2023-10-13T15:29:11;22.80;99.90
32698;DHT22;19087;51.062;3.754;2023-10-13T15:31:41;22.60;99.90
32698;DHT22;19087;51.062;3.754;2023-10-13T15:34:14;22.80;99.90
32698;DHT22;19087;51.062;3.754;2023-10-13T15:36:40;22.80;99.90
32698;DHT22;19087;51.062;3.754;2023-10-13T15:39:09;22.80;99.90
32698;DHT22;19087;51.062;3.754;2023-10-13T15:41:41;22.70;99.90
32698;DHT22;19087;51.062;3.754;2023-10-13T15:44:11;22.80;99.90
32698;DHT22;19087;51.062;3.754;2023-10-13T15:46:39;22.80;99.90
32698;DHT22;19087;51.062;3.754;2023-10-13T15:49:05;23.00;99.90
32698;DHT22;19087;51.062;3.754;2023-10-13T15:51:35;23.00;99.90
32698;DHT22;19087;51.062;3.754;2023-10-13T15:54:05;22.90;99.90
32698;DHT22;19087;51.062;3.754;2023-10-13T15:56:36;22.80;99.90
32698;DHT22;19087;51.062;3.754;2023-10-13T15:59:06;22.90;99.90
32698;DHT22;19087;51.062;3.754;2023-10-13T16:01:32;22.90;99.90
32698;DHT22;19087;51.062;3.754;2023-10-13T16:04:01;22.90;99.90
32698;DHT22;19087;51.062;3.754;2023-10-13T16:06:41;22.70;99.90
32698;DHT22;19087;51.062;3.754;2023-10-13T16:09:13;22.50;99.90
32698;DHT22;19087;51.062;3.754;2023-10-13T16:11:49;22.30;99.90
32698;DHT22;19087;51.062;3.754;2023-10-13T16:14:15;22.30;99.90
32698;DHT22;19087;51.062;3.754;2023-10-13T16:16:44;22.30;99.90
32698;DHT22;19087;51.062;3.754;2023-10-13T16:19:13;22.30;99.90
32698;DHT22;19087;51.062;3.754;2023-10-13T16:21:40;22.10;99.90
32698;DHT22;19087;51.062;3.754;2023-10-13T16:24:06;22.00;99.90
32698;DHT22;19087;51.062;3.754;2023-10-13T16:26:37;22.00;99.90
32698;DHT22;19087;51.062;3.754;2023-10-13T16:29:06;22.10;99.90